Time;durP1;ratioP1;P1;durP2;ratioP2;P2;SDS_P1;SDS_P2;PMS_P1;PMS_P2;Temp;Humidity;BMP_temperature;BMP_pressure;BME280_temperature;BME280_humidity;BME280_pressure;Samples;Min_cycle;Max_cycle;Signal;HPM_P1;HPM_P2
2023/07/08 00:00:54;;;;;;;4.53;2.40;;;22.40;99.90;;;;;;4960329;28;20241;-59
2023/07/08 00:03:21;;;;;;;4.43;2.30;;;22.30;99.90;;;;;;4952189;28;20241;-60
2023/07/08 00:05:53;;;;;;;4.17;2.27;;;22.40;99.90;;;;;;4974596;28;20515;-57
2023/07/08 00:08:21;;;;;;;3.63;2.63;;;22.40;99.90;;;;;;4970887;28;20236;-59
2023/07/08 00:10:49;;;;;;;2.97;2.13;;;22.40;99.90;;;;;;4980173;28;20272;-59
2023/07/08 00:13:18;;;;;;;2.30;2.10;;;22.30;99.90;;;;;;4972800;28;20210;-59
2023/07/08 00:15:46;;;;;;;3.53;2.27;;;22.20;99.90;;;;;;4972203;28;20700;-61
2023/07/08 00:18:15;;;;;;;3.83;2.10;;;22.20;99.90;;;;;;4972655;28;20210;-59
2023/07/08 00:20:50;;;;;;;4.07;2.40;;;22.20;99.90;;;;;;4960296;28;20222;-59
2023/07/08 00:23:21;;;;;;;3.60;2.40;;;22.10;99.90;;;;;;4956888;28;20195;-61
2023/07/08 00:25:49;;;;;;;3.47;2.50;;;22.10;99.90;;;;;;4976571;28;20301;-60
2023/07/08 00:28:21;;;;;;;4.20;2.67;;;22.10;99.90;;;;;;4969087;28;20714;-60
2023/07/08 00:30:49;;;;;;;4.07;2.17;;;22.10;99.90;;;;;;4960663;28;20205;-61
2023/07/08 00:33:16;;;;;;;3.10;2.33;;;22.00;99.90;;;;;;4979403;28;20229;-61
2023/07/08 00:35:45;;;;;;;3.83;2.33;;;21.90;99.90;;;;;;4961040;28;20208;-59
2023/07/08 00:38:26;;;;;;;3.87;2.60;;;21.90;99.90;;;;;;4969448;28;20219;-60
2023/07/08 00:41:03;;;;;;;2.50;2.20;;;21.90;99.90;;;;;;4973801;28;20215;-62
2023/07/08 00:43:37;;;;;;;3.33;2.80;;;21.70;99.90;;;;;;4962587;28;20545;-60
2023/07/08 00:46:32;;;;;;;4.70;2.73;;;21.80;99.90;;;;;;4964118;28;20208;-60
2023/07/08 00:49:09;;;;;;;3.23;2.53;;;21.70;99.90;;;;;;4966772;28;20275;-59
2023/07/08 00:51:38;;;;;;;5.80;2.83;;;21.70;99.90;;;;;;4959358;28;20217;-61
2023/07/08 00:54:17;;;;;;;2.47;2.13;;;21.70;99.90;;;;;;4973456;28;20212;-61
2023/07/08 00:56:57;;;;;;;2.60;2.40;;;21.70;99.90;;;;;;4953914;28;20215;-62
2023/07/08 00:59:32;;;;;;;4.30;2.40;;;21.70;99.90;;;;;;4963999;28;20206;-60
2023/07/08 01:02:02;;;;;;;4.07;2.70;;;21.70;99.90;;;;;;4994403;23;20514;-58
2023/07/08 01:04:39;;;;;;;3.73;2.43;;;21.60;99.90;;;;;;4996581;28;20201;-59
2023/07/08 01:07:07;;;;;;;5.57;2.97;;;21.60;99.90;;;;;;4997843;28;20585;-59
2023/07/08 01:09:45;;;;;;;3.20;2.50;;;21.40;99.90;;;;;;4993145;28;20223;-59
2023/07/08 01:12:23;;;;;;;4.00;2.20;;;21.40;99.90;;;;;;4995717;28;20571;-59
2023/07/08 01:14:53;;;;;;;2.33;2.13;;;21.50;99.90;;;;;;4996802;28;20236;-58
2023/07/08 01:17:22;;;;;;;3.37;2.37;;;21.50;99.90;;;;;;5001404;28;20347;-58
2023/07/08 01:19:51;;;;;;;3.50;2.47;;;21.50;99.90;;;;;;4993962;28;20231;-59
2023/07/08 01:22:18;;;;;;;2.90;2.37;;;21.40;99.90;;;;;;4994501;28;20202;-59
2023/07/08 01:24:46;;;;;;;3.70;2.43;;;21.30;99.90;;;;;;4998124;28;20209;-59
2023/07/08 01:27:17;;;;;;;3.90;2.57;;;21.30;99.90;;;;;;5001122;28;20293;-59
2023/07/08 01:29:46;;;;;;;2.37;2.03;;;21.20;99.90;;;;;;5001565;28;20462;-59
2023/07/08 01:32:17;;;;;;;3.43;2.60;;;21.30;99.90;;;;;;4997287;28;20209;-58
2023/07/08 01:34:59;;;;;;;3.80;2.40;;;21.20;99.90;;;;;;4999032;28;20210;-59
2023/07/08 01:37:51;;;;;;;3.53;2.27;;;21.30;99.90;;;;;;5020137;28;20259;-59
2023/07/08 01:40:31;;;;;;;2.10;1.90;;;21.30;99.90;;;;;;5001115;28;20216;-58
2023/07/08 01:42:58;;;;;;;5.80;3.00;;;21.20;99.90;;;;;;4997737;28;20288;-59
2023/07/08 01:45:34;;;;;;;2.83;2.13;;;21.10;99.90;;;;;;5000033;28;20208;-59
2023/07/08 01:48:05;;;;;;;3.23;2.13;;;21.20;99.90;;;;;;4996412;28;20205;-59
2023/07/08 01:50:40;;;;;;;4.33;2.10;;;21.20;99.90;;;;;;5005952;28;20205;-59
2023/07/08 01:53:16;;;;;;;3.57;2.10;;;21.10;99.90;;;;;;4998844;28;20197;-58
2023/07/08 01:55:42;;;;;;;4.87;2.33;;;21.10;99.90;;;;;;5004262;28;20292;-59
2023/07/08 01:58:09;;;;;;;4.77;2.27;;;21.00;99.90;;;;;;5001767;28;20307;-59
2023/07/08 02:00:36;;;;;;;3.43;2.07;;;21.00;99.90;;;;;;5003722;28;20237;-59
2023/07/08 02:03:03;;;;;;;3.30;2.27;;;21.10;99.90;;;;;;4998963;28;20245;-59
2023/07/08 02:05:30;;;;;;;3.70;2.30;;;21.00;99.90;;;;;;4996525;28;20288;-59
2023/07/08 02:07:57;;;;;;;3.93;2.30;;;20.90;99.90;;;;;;5002647;28;20277;-59
2023/07/08 02:10:25;;;;;;;4.60;2.43;;;21.00;99.90;;;;;;4998847;28;20224;-59
2023/07/08 02:12:52;;;;;;;4.83;2.27;;;20.90;99.90;;;;;;5001163;28;20210;-59
2023/07/08 02:15:19;;;;;;;5.50;2.30;;;20.90;99.90;;;;;;4999770;28;20260;-59
2023/07/08 02:17:46;;;;;;;2.67;2.27;;;20.90;99.90;;;;;;4997910;28;20313;-59
2023/07/08 02:20:13;;;;;;;5.20;2.40;;;20.80;99.90;;;;;;4995756;28;21605;-59
2023/07/08 02:22:39;;;;;;;3.20;2.50;;;20.90;99.90;;;;;;5000995;28;20201;-59
2023/07/08 02:25:09;;;;;;;4.40;2.57;;;20.90;99.90;;;;;;5001205;28;20192;-59
2023/07/08 02:27:36;;;;;;;4.00;2.97;;;20.80;99.90;;;;;;5002511;28;20229;-59
2023/07/08 02:30:05;;;;;;;4.70;2.70;;;20.80;99.90;;;;;;4999602;28;20287;-59
2023/07/08 02:32:34;;;;;;;3.70;2.27;;;20.60;99.90;;;;;;4996605;28;20267;-57
2023/07/08 02:35:02;;;;;;;2.30;2.10;;;20.60;99.90;;;;;;4998284;28;20400;-58
2023/07/08 02:37:30;;;;;;;3.13;2.30;;;20.60;99.90;;;;;;4995197;28;21822;-59
2023/07/08 02:39:56;;;;;;;2.50;2.30;;;20.60;99.90;;;;;;4999947;28;20507;-58
2023/07/08 02:42:24;;;;;;;2.93;2.47;;;20.60;99.90;;;;;;4998528;28;20308;-58
2023/07/08 02:44:50;;;;;;;3.13;2.47;;;20.60;99.90;;;;;;4997192;28;20202;-59
2023/07/08 02:47:17;;;;;;;3.97;2.40;;;20.60;99.90;;;;;;4998884;28;20201;-59
2023/07/08 02:49:45;;;;;;;3.13;2.30;;;20.50;99.90;;;;;;4998501;28;20225;-59
2023/07/08 02:52:12;;;;;;;4.70;2.13;;;20.30;99.90;;;;;;4996770;28;20229;-59
2023/07/08 02:54:39;;;;;;;4.47;2.23;;;20.30;99.90;;;;;;4998844;28;20205;-59
2023/07/08 02:57:06;;;;;;;3.13;2.70;;;20.30;99.90;;;;;;4998937;28;20197;-59
2023/07/08 02:59:33;;;;;;;3.43;2.03;;;20.40;99.90;;;;;;5000375;28;20223;-59
2023/07/08 03:01:59;;;;;;;3.70;2.97;;;20.40;99.90;;;;;;5001084;28;20383;-59
2023/07/08 03:04:26;;;;;;;4.63;2.57;;;20.40;99.90;;;;;;4997600;28;20213;-59
2023/07/08 03:06:53;;;;;;;3.30;2.40;;;20.40;99.90;;;;;;4998541;28;20233;-59
2023/07/08 03:09:20;;;;;;;2.80;2.30;;;20.40;99.90;;;;;;4995702;28;20217;-59
2023/07/08 03:11:47;;;;;;;4.23;2.40;;;20.30;99.90;;;;;;4999301;28;20277;-59
2023/07/08 03:14:14;;;;;;;5.57;2.67;;;20.30;99.90;;;;;;5001117;28;20579;-58
2023/07/08 03:16:41;;;;;;;4.67;2.70;;;20.30;99.90;;;;;;4995321;28;20259;-59
2023/07/08 03:19:10;;;;;;;3.47;2.30;;;20.20;99.90;;;;;;4998908;28;20260;-59
2023/07/08 03:21:37;;;;;;;3.53;2.60;;;20.20;99.90;;;;;;4997338;28;20204;-59
2023/07/08 03:24:04;;;;;;;3.03;2.03;;;20.30;99.90;;;;;;4998948;28;20206;-58
2023/07/08 03:26:31;;;;;;;3.43;2.37;;;20.30;99.90;;;;;;4999619;28;20259;-58
2023/07/08 03:28:58;;;;;;;4.00;2.50;;;20.20;99.90;;;;;;4999432;28;20656;-58
2023/07/08 03:31:25;;;;;;;5.20;2.87;;;20.20;99.90;;;;;;4998311;28;20217;-58
2023/07/08 03:33:52;;;;;;;2.60;2.23;;;20.10;99.90;;;;;;4998589;28;20541;-58
2023/07/08 03:36:22;;;;;;;3.77;2.30;;;20.10;99.90;;;;;;4997218;28;20216;-58
2023/07/08 03:38:55;;;;;;;3.03;2.20;;;20.10;99.90;;;;;;4999523;28;20700;-58
2023/07/08 03:41:23;;;;;;;3.33;2.53;;;20.10;99.90;;;;;;5000073;28;20288;-58
2023/07/08 03:43:50;;;;;;;3.83;2.50;;;20.00;99.90;;;;;;4993401;28;20663;-58
2023/07/08 03:46:20;;;;;;;3.00;2.70;;;20.00;99.90;;;;;;4997638;28;20205;-57
2023/07/08 03:48:47;;;;;;;4.07;2.50;;;20.10;99.90;;;;;;4994523;28;20629;-58
2023/07/08 03:51:21;;;;;;;2.43;2.10;;;20.10;99.90;;;;;;4993108;28;20570;-58
2023/07/08 03:53:48;;;;;;;3.93;2.77;;;20.00;99.90;;;;;;4997275;28;20350;-58
2023/07/08 03:56:15;;;;;;;5.43;2.83;;;19.90;99.90;;;;;;4999801;28;20240;-57
2023/07/08 03:58:42;;;;;;;3.53;2.60;;;19.90;99.90;;;;;;4999898;28;20239;-58
2023/07/08 04:01:20;;;;;;;2.53;2.33;;;19.90;99.90;;;;;;4998450;28;20202;-58
2023/07/08 04:03:47;;;;;;;2.73;2.53;;;19.90;99.90;;;;;;4991855;28;20347;-58
2023/07/08 04:06:14;;;;;;;4.77;2.80;;;19.90;99.90;;;;;;4997476;28;20617;-58
2023/07/08 04:08:42;;;;;;;3.33;2.50;;;20.00;99.90;;;;;;5000095;28;20267;-58
2023/07/08 04:11:14;;;;;;;4.73;2.43;;;19.90;99.90;;;;;;4992518;28;20304;-58
2023/07/08 04:13:41;;;;;;;2.80;2.50;;;19.80;99.90;;;;;;4997577;28;20214;-58
2023/07/08 04:16:16;;;;;;;3.40;3.10;;;19.80;99.90;;;;;;5000116;28;20663;-57
2023/07/08 04:18:46;;;;;;;2.83;2.50;;;19.90;99.90;;;;;;5002164;28;20229;-58
2023/07/08 04:21:13;;;;;;;3.27;2.50;;;19.90;99.90;;;;;;4990000;28;20947;-58
2023/07/08 04:23:44;;;;;;;3.73;2.30;;;19.90;99.90;;;;;;4994469;28;20206;-58
2023/07/08 04:26:11;;;;;;;3.43;2.67;;;19.90;99.90;;;;;;4992675;28;20271;-58
2023/07/08 04:28:38;;;;;;;3.00;2.50;;;19.80;99.90;;;;;;4997867;28;20264;-58
2023/07/08 04:31:05;;;;;;;3.00;2.57;;;19.90;99.90;;;;;;4993628;28;20224;-58
2023/07/08 04:33:31;;;;;;;3.37;2.87;;;19.80;99.90;;;;;;4996850;28;20205;-58
2023/07/08 04:35:58;;;;;;;4.53;3.53;;;19.80;99.90;;;;;;5001023;28;20221;-59
2023/07/08 04:38:26;;;;;;;5.10;2.87;;;19.80;99.90;;;;;;4996491;28;20229;-59
2023/07/08 04:40:54;;;;;;;4.30;2.77;;;19.80;99.90;;;;;;4994912;28;20235;-58
2023/07/08 04:43:22;;;;;;;2.93;2.60;;;19.90;99.90;;;;;;4998079;28;20276;-63
2023/07/08 04:45:52;;;;;;;5.70;3.10;;;19.90;99.90;;;;;;4998461;28;20746;-59
2023/07/08 04:48:24;;;;;;;4.63;3.00;;;19.90;99.90;;;;;;4996770;28;20209;-59
2023/07/08 04:50:52;;;;;;;3.63;2.73;;;19.90;99.90;;;;;;4998761;28;20542;-59
2023/07/08 04:53:19;;;;;;;3.57;2.80;;;20.00;99.90;;;;;;4994420;28;20267;-59
2023/07/08 04:55:56;;;;;;;4.20;3.23;;;20.00;99.90;;;;;;4998137;28;20255;-59
2023/07/08 04:58:23;;;;;;;5.87;3.13;;;20.00;99.90;;;;;;4997220;28;20695;-59
2023/07/08 05:00:50;;;;;;;6.17;2.80;;;19.90;99.90;;;;;;4996987;28;20205;-59
2023/07/08 05:03:17;;;;;;;3.43;3.00;;;20.00;99.90;;;;;;4993925;28;20232;-59
2023/07/08 05:05:44;;;;;;;4.50;3.20;;;20.10;99.90;;;;;;4996990;28;20388;-59
2023/07/08 05:08:12;;;;;;;3.53;3.00;;;20.10;99.90;;;;;;4995817;28;20570;-59
2023/07/08 05:10:39;;;;;;;5.20;3.43;;;20.20;99.90;;;;;;4998166;28;21600;-59
2023/07/08 05:13:06;;;;;;;7.20;3.37;;;20.30;99.90;;;;;;4998355;28;20215;-59
2023/07/08 05:15:33;;;;;;;3.67;3.10;;;20.30;99.90;;;;;;4999984;28;20668;-59
2023/07/08 05:18:00;;;;;;;3.07;2.77;;;20.30;99.90;;;;;;4993170;28;21197;-60
2023/07/08 05:20:27;;;;;;;3.97;2.83;;;20.40;99.90;;;;;;5001235;28;20205;-59
2023/07/08 05:22:54;;;;;;;4.60;3.50;;;20.50;99.90;;;;;;5003162;28;20196;-59
2023/07/08 05:25:20;;;;;;;5.57;3.30;;;20.60;99.90;;;;;;5001886;28;20232;-59
2023/07/08 05:27:48;;;;;;;4.40;3.73;;;20.70;99.90;;;;;;5000838;28;20193;-59
2023/07/08 05:30:17;;;;;;;5.33;3.30;;;20.80;99.90;;;;;;4994459;28;20702;-59
2023/07/08 05:32:45;;;;;;;3.67;3.23;;;20.80;99.90;;;;;;5001037;28;20205;-59
2023/07/08 05:35:13;;;;;;;4.10;3.00;;;20.90;99.90;;;;;;4997484;28;20213;-59
2023/07/08 05:37:39;;;;;;;5.03;3.70;;;20.90;99.90;;;;;;4995386;28;20586;-59
2023/07/08 05:40:10;;;;;;;4.57;3.27;;;21.00;99.90;;;;;;4995182;28;22173;-59
2023/07/08 05:42:37;;;;;;;3.37;2.93;;;21.10;99.90;;;;;;5000075;28;20205;-59
2023/07/08 05:45:06;;;;;;;4.27;3.60;;;21.00;99.90;;;;;;4995134;28;20565;-58
2023/07/08 05:47:33;;;;;;;4.73;3.27;;;21.10;99.90;;;;;;4999259;28;20653;-59
2023/07/08 05:50:01;;;;;;;4.80;3.23;;;21.30;99.90;;;;;;4996020;28;20213;-58
2023/07/08 05:52:28;;;;;;;5.87;3.20;;;21.50;99.90;;;;;;5008358;28;20300;-58
2023/07/08 05:54:55;;;;;;;6.07;4.43;;;21.40;99.90;;;;;;4997382;28;20653;-58
2023/07/08 05:57:23;;;;;;;4.43;3.90;;;21.50;99.90;;;;;;4998705;28;20208;-58
2023/07/08 05:59:50;;;;;;;7.77;4.07;;;21.50;99.90;;;;;;4996970;28;20213;-58
2023/07/08 06:02:19;;;;;;;4.07;3.73;;;21.40;99.90;;;;;;4987348;28;20260;-58
2023/07/08 06:04:46;;;;;;;4.60;3.80;;;21.20;99.90;;;;;;4991808;28;20201;-58
2023/07/08 06:07:13;;;;;;;6.10;3.17;;;21.40;99.90;;;;;;4992728;28;20222;-58
2023/07/08 06:09:40;;;;;;;10.70;3.90;;;21.40;99.90;;;;;;4988617;28;20306;-58
2023/07/08 06:12:07;;;;;;;5.00;3.83;;;21.50;99.90;;;;;;4993479;28;20260;-59
2023/07/08 06:14:34;;;;;;;6.17;4.30;;;21.50;99.90;;;;;;4992622;28;20918;-59
2023/07/08 06:17:01;;;;;;;4.10;3.60;;;21.50;99.90;;;;;;4992818;28;20206;-58
2023/07/08 06:19:28;;;;;;;5.03;3.60;;;21.50;99.90;;;;;;4989239;28;20217;-58
2023/07/08 06:21:55;;;;;;;5.80;4.13;;;21.60;99.90;;;;;;4993669;28;20642;-58
2023/07/08 06:24:34;;;;;;;6.23;4.07;;;21.60;99.90;;;;;;4992473;28;20220;-58
2023/07/08 06:27:01;;;;;;;6.70;3.73;;;21.50;99.90;;;;;;4997986;28;20275;-58
2023/07/08 06:29:28;;;;;;;5.87;4.10;;;21.60;99.90;;;;;;4995963;28;20205;-58
2023/07/08 06:31:55;;;;;;;4.23;3.83;;;21.80;99.90;;;;;;4998543;28;20256;-58
2023/07/08 06:34:23;;;;;;;4.57;3.83;;;21.80;99.90;;;;;;4998691;28;20569;-58
2023/07/08 06:36:51;;;;;;;6.13;4.20;;;21.90;99.90;;;;;;5000808;28;20221;-58
2023/07/08 06:39:18;;;;;;;5.97;4.30;;;22.00;99.90;;;;;;4997969;28;20232;-59
2023/07/08 06:41:45;;;;;;;6.10;4.10;;;21.90;99.90;;;;;;4998392;28;20664;-58
2023/07/08 06:44:12;;;;;;;5.77;4.23;;;22.10;99.90;;;;;;4995451;28;20617;-58
2023/07/08 06:46:39;;;;;;;8.50;4.63;;;22.20;99.90;;;;;;4997709;28;20553;-58
2023/07/08 06:49:08;;;;;;;5.07;4.27;;;22.40;99.90;;;;;;4994268;28;20210;-58
2023/07/08 06:51:36;;;;;;;5.90;4.23;;;22.60;99.90;;;;;;5001544;28;20263;-58
2023/07/08 06:54:04;;;;;;;6.47;4.00;;;22.80;99.90;;;;;;4998425;28;20212;-58
2023/07/08 06:56:31;;;;;;;8.47;4.13;;;23.00;99.90;;;;;;4995654;28;21077;-59
2023/07/08 06:58:58;;;;;;;8.13;4.43;;;23.10;99.90;;;;;;4995405;28;20219;-59
2023/07/08 07:01:25;;;;;;;6.30;4.00;;;23.10;99.90;;;;;;4991659;28;20477;-59
2023/07/08 07:03:52;;;;;;;6.27;4.20;;;23.30;99.90;;;;;;4994700;28;20227;-59
2023/07/08 07:06:19;;;;;;;6.00;4.60;;;23.30;99.90;;;;;;5006249;28;20676;-59
2023/07/08 07:08:45;;;;;;;6.77;4.23;;;23.60;99.90;;;;;;4638473;28;10000559;-58
2023/07/08 07:11:12;;;;;;;7.07;3.90;;;23.80;99.90;;;;;;4987078;28;20209;-60
2023/07/08 07:13:39;;;;;;;4.57;3.57;;;23.80;99.90;;;;;;4997237;28;20206;-59
2023/07/08 07:16:06;;;;;;;5.47;3.83;;;24.00;99.90;;;;;;4993747;28;20214;-60
2023/07/08 07:18:33;;;;;;;6.27;4.00;;;24.40;99.90;;;;;;4987657;28;20216;-59
2023/07/08 07:21:00;;;;;;;7.50;4.40;;;24.50;99.90;;;;;;4988703;28;20664;-59
2023/07/08 07:23:27;;;;;;;5.97;4.20;;;24.50;99.90;;;;;;4989472;28;20262;-60
2023/07/08 07:25:54;;;;;;;7.60;5.03;;;24.60;99.90;;;;;;4994528;28;21003;-59
2023/07/08 07:28:21;;;;;;;7.53;4.67;;;24.80;99.90;;;;;;4989873;28;20196;-59
2023/07/08 07:30:56;;;;;;;5.50;4.40;;;24.80;99.90;;;;;;4995251;28;21112;-59
2023/07/08 07:33:23;;;;;;;5.37;4.10;;;25.10;99.90;;;;;;4995408;28;20303;-60
2023/07/08 07:35:50;;;;;;;7.37;4.03;;;25.30;99.90;;;;;;4992811;28;20664;-59
2023/07/08 07:38:17;;;;;;;7.53;4.37;;;25.10;99.90;;;;;;4995686;28;20213;-59
2023/07/08 07:40:44;;;;;;;7.70;4.70;;;25.20;99.90;;;;;;4993006;28;20218;-59
2023/07/08 07:43:11;;;;;;;7.33;4.77;;;25.20;99.90;;;;;;4991434;28;20208;-59
2023/07/08 07:45:38;;;;;;;9.03;5.07;;;25.30;99.90;;;;;;4980351;28;20504;-59
2023/07/08 07:48:05;;;;;;;5.17;4.17;;;25.50;99.90;;;;;;4989895;28;20213;-59
2023/07/08 07:50:32;;;;;;;8.70;4.50;;;25.70;99.90;;;;;;4997941;28;20212;-59
2023/07/08 07:52:59;;;;;;;7.63;4.90;;;25.90;99.90;;;;;;4988680;28;21123;-66
2023/07/08 07:55:26;;;;;;;6.87;4.97;;;26.00;99.90;;;;;;4996166;28;20637;-66
2023/07/08 07:57:53;;;;;;;7.70;5.07;;;26.10;99.90;;;;;;4992691;28;20275;-61
2023/07/08 08:00:20;;;;;;;7.47;4.57;;;26.10;99.90;;;;;;4980225;28;20648;-60
2023/07/08 08:02:47;;;;;;;6.83;4.57;;;26.40;99.90;;;;;;4986500;28;20259;-59
2023/07/08 08:05:14;;;;;;;5.83;4.60;;;26.70;99.90;;;;;;4987396;28;20212;-59
2023/07/08 08:07:41;;;;;;;7.00;4.38;;;26.80;99.90;;;;;;4999801;28;20205;-58
2023/07/08 08:10:08;;;;;;;6.60;5.25;;;26.80;99.90;;;;;;5005197;28;20301;-58
2023/07/08 08:12:35;;;;;;;7.72;5.20;;;27.00;99.90;;;;;;4992717;28;20675;-59
2023/07/08 08:15:20;;;;;;;8.05;4.82;;;27.20;99.90;;;;;;4996939;28;22792;-59
2023/07/08 08:17:48;;;;;;;6.95;5.22;;;26.90;99.90;;;;;;4999027;28;20220;-56
2023/07/08 08:20:16;;;;;;;6.68;5.10;;;27.00;99.90;;;;;;4998919;28;20220;-57
2023/07/08 08:22:43;;;;;;;6.97;5.10;;;26.90;99.90;;;;;;4989619;28;20308;-56
2023/07/08 08:25:10;;;;;;;7.40;4.80;;;27.20;99.90;;;;;;4998594;28;20205;-56
2023/07/08 08:27:37;;;;;;;5.90;4.40;;;27.70;99.90;;;;;;5006517;28;20197;-56
2023/07/08 08:30:05;;;;;;;7.43;4.83;;;27.80;99.90;;;;;;5007922;28;20586;-56
2023/07/08 08:32:32;;;;;;;6.97;4.13;;;28.10;99.90;;;;;;5004343;28;20289;-56
2023/07/08 08:34:59;;;;;;;7.20;5.13;;;28.30;99.90;;;;;;4994806;28;20627;-56
2023/07/08 08:37:29;;;;;;;7.60;5.20;;;28.60;99.90;;;;;;5001136;28;20296;-56
2023/07/08 08:39:55;;;;;;;6.30;4.63;;;28.10;99.90;;;;;;5003512;28;20677;-56
2023/07/08 08:42:39;;;;;;;8.63;4.97;;;28.30;99.90;;;;;;5000641;28;20197;-56
2023/07/08 08:45:10;;;;;;;6.33;4.83;;;28.50;99.90;;;;;;4996778;28;20532;-56
2023/07/08 08:47:41;;;;;;;7.00;5.37;;;28.50;99.90;;;;;;5001283;28;20570;-57
2023/07/08 08:50:27;;;;;;;9.47;5.07;;;28.30;99.90;;;;;;4993360;28;20209;-56
2023/07/08 08:52:55;;;;;;;8.23;5.57;;;28.40;99.90;;;;;;5006942;28;20694;-56
2023/07/08 08:55:24;;;;;;;7.87;4.47;;;28.00;99.90;;;;;;5005697;28;20202;-57
2023/07/08 08:58:21;;;;;;;7.63;4.87;;;28.00;99.90;;;;;;5007844;28;20292;-57
2023/07/08 09:01:04;;;;;;;7.33;5.40;;;28.30;99.90;;;;;;4989621;28;20228;-56
2023/07/08 09:03:51;;;;;;;8.77;5.57;;;28.60;99.90;;;;;;5007161;28;20237;-57
2023/07/08 09:06:25;;;;;;;12.07;5.13;;;28.60;99.90;;;;;;5004634;28;20239;-56
2023/07/08 09:08:54;;;;;;;8.60;5.93;;;29.00;99.90;;;;;;5001591;28;20240;-57
2023/07/08 09:11:52;;;;;;;10.02;5.78;;;29.00;99.90;;;;;;5004997;28;20305;-59
2023/07/08 09:14:30;;;;;;;7.85;5.07;;;29.30;99.90;;;;;;5002541;28;20205;-56
2023/07/08 09:17:11;;;;;;;12.48;5.15;;;29.60;99.90;;;;;;5001738;28;20217;-57
2023/07/08 09:19:44;;;;;;;6.50;5.10;;;29.20;99.90;;;;;;5005262;28;20290;-57
2023/07/08 09:22:19;;;;;;;7.75;6.03;;;29.40;99.90;;;;;;4999498;28;20197;-57
2023/07/08 09:24:51;;;;;;;7.65;5.65;;;29.60;99.90;;;;;;5001095;28;20205;-57
2023/07/08 09:27:18;;;;;;;8.68;5.38;;;29.40;99.90;;;;;;5000098;28;20751;-57
2023/07/08 09:29:46;;;;;;;7.80;5.75;;;29.30;99.90;;;;;;4999844;28;20295;-56
2023/07/08 09:32:16;;;;;;;10.40;5.53;;;29.50;99.90;;;;;;4996611;28;20305;-57
2023/07/08 09:34:53;;;;;;;9.23;5.50;;;29.10;99.90;;;;;;4994258;28;20228;-57
2023/07/08 09:37:26;;;;;;;7.55;5.10;;;29.50;99.90;;;;;;5002095;28;20300;-57
2023/07/08 09:39:54;;;;;;;7.28;4.68;;;29.80;99.90;;;;;;5002475;28;20290;-57
2023/07/08 09:42:27;;;;;;;8.35;5.00;;;29.90;99.90;;;;;;5001442;28;20198;-56
2023/07/08 09:44:57;;;;;;;8.15;5.32;;;30.20;99.90;;;;;;5002056;28;20255;-57
2023/07/08 09:47:32;;;;;;;6.65;4.93;;;30.50;99.90;;;;;;5003083;28;20208;-57
2023/07/08 09:50:00;;;;;;;7.80;5.35;;;30.60;99.90;;;;;;5002330;28;20208;-57
2023/07/08 09:52:31;;;;;;;8.07;5.65;;;30.60;99.90;;;;;;4997846;28;20287;-57
2023/07/08 09:54:59;;;;;;;7.90;6.05;;;30.40;99.90;;;;;;4993739;28;20356;-57
2023/07/08 09:57:30;;;;;;;9.48;6.05;;;30.30;99.90;;;;;;4638935;28;10000521;-57
2023/07/08 10:00:02;;;;;;;7.85;6.18;;;29.60;99.90;;;;;;4993022;28;20299;-58
2023/07/08 10:02:31;;;;;;;10.05;5.90;;;29.80;99.90;;;;;;5001293;28;21138;-57
2023/07/08 10:05:27;;;;;;;7.72;5.40;;;30.20;99.90;;;;;;4995726;28;20860;-57
2023/07/08 10:07:56;;;;;;;10.82;6.00;;;30.70;99.90;;;;;;4995205;28;20279;-57
2023/07/08 10:10:34;;;;;;;8.55;6.03;;;30.70;99.90;;;;;;4997481;28;20201;-57
2023/07/08 10:13:32;;;;;;;6.43;5.15;;;30.90;99.90;;;;;;4997124;28;20274;-57
2023/07/08 10:16:13;;;;;;;6.63;5.40;;;31.00;99.90;;;;;;4998249;28;20212;-57
2023/07/08 10:18:41;;;;;;;8.50;5.40;;;31.00;99.90;;;;;;4997606;28;20655;-58
2023/07/08 10:21:26;;;;;;;11.45;5.80;;;30.60;99.90;;;;;;4995714;28;20278;-57
2023/07/08 10:24:11;;;;;;;7.70;6.43;;;30.80;99.90;;;;;;4999860;28;20201;-57
2023/07/08 10:26:39;;;;;;;10.88;6.07;;;30.80;99.90;;;;;;4996502;28;20275;-57
2023/07/08 10:29:14;;;;;;;6.75;5.40;;;30.80;99.90;;;;;;5004337;28;20210;-57
2023/07/08 10:32:06;;;;;;;7.55;5.50;;;31.10;99.90;;;;;;4995858;28;20197;-57
2023/07/08 10:34:48;;;;;;;7.47;6.43;;;31.40;99.90;;;;;;4994545;28;20344;-61
2023/07/08 10:37:25;;;;;;;8.05;5.63;;;31.50;99.90;;;;;;4998088;28;20202;-57
2023/07/08 10:40:01;;;;;;;8.32;6.07;;;31.50;99.90;;;;;;5003193;28;20275;-57
2023/07/08 10:42:38;;;;;;;8.60;5.90;;;31.30;99.90;;;;;;4993153;28;20255;-57
2023/07/08 10:45:14;;;;;;;9.45;6.43;;;31.60;99.90;;;;;;4999007;28;20602;-57
2023/07/08 10:48:00;;;;;;;8.05;6.25;;;31.50;99.90;;;;;;5001413;28;20660;-56
2023/07/08 10:50:47;;;;;;;11.35;6.15;;;31.30;99.90;;;;;;5003474;28;20255;-57
2023/07/08 10:53:40;;;;;;;7.40;6.25;;;31.30;99.90;;;;;;4991865;28;20227;-57
2023/07/08 10:56:16;;;;;;;7.88;6.40;;;31.60;99.90;;;;;;5005671;28;20267;-57
2023/07/08 10:58:49;;;;;;;10.63;6.00;;;31.30;99.90;;;;;;4999607;28;20212;-57
2023/07/08 11:01:44;;;;;;;8.25;6.13;;;31.40;99.90;;;;;;4994536;28;20295;-57
2023/07/08 11:04:23;;;;;;;9.90;6.22;;;31.50;99.90;;;;;;4995234;28;20235;-57
2023/07/08 11:06:52;;;;;;;12.15;6.60;;;31.40;99.90;;;;;;4996182;28;20415;-56
2023/07/08 11:09:33;;;;;;;9.10;6.40;;;31.60;99.90;;;;;;4999407;28;20201;-57
2023/07/08 11:12:15;;;;;;;9.18;6.05;;;31.70;99.90;;;;;;5011381;28;20232;-56
2023/07/08 11:15:15;;;;;;;8.18;5.82;;;31.70;99.90;;;;;;4994561;28;20675;-56
2023/07/08 11:17:52;;;;;;;8.38;6.03;;;32.10;99.90;;;;;;4999459;28;20209;-57
2023/07/08 11:20:48;;;;;;;8.70;6.03;;;32.10;99.90;;;;;;5000437;28;20703;-57
2023/07/08 11:23:38;;;;;;;6.95;5.32;;;32.20;99.90;;;;;;4999355;28;20416;-57
2023/07/08 11:26:18;;;;;;;8.13;6.00;;;32.60;99.90;;;;;;5001639;28;20646;-57
2023/07/08 11:28:46;;;;;;;8.82;5.65;;;32.80;99.90;;;;;;4994729;28;20222;-57
2023/07/08 11:31:14;;;;;;;10.30;5.63;;;33.10;99.90;;;;;;4997286;28;20711;-57
2023/07/08 11:33:43;;;;;;;10.50;6.30;;;33.00;99.90;;;;;;4999084;28;20205;-57
2023/07/08 11:36:11;;;;;;;8.30;5.75;;;33.30;99.90;;;;;;4998438;28;20558;-56
2023/07/08 11:38:52;;;;;;;11.15;6.45;;;33.40;99.90;;;;;;5004086;28;20201;-57
2023/07/08 11:41:22;;;;;;;10.40;6.13;;;33.30;99.90;;;;;;4989248;28;20252;-57
2023/07/08 11:43:57;;;;;;;9.55;5.90;;;32.90;99.90;;;;;;4992140;28;20197;-57
2023/07/08 11:46:28;;;;;;;7.75;5.78;;;33.40;99.90;;;;;;4999189;28;20216;-57
2023/07/08 11:49:00;;;;;;;10.18;5.97;;;33.80;99.90;;;;;;4996202;28;20198;-58
2023/07/08 11:51:34;;;;;;;10.50;6.18;;;33.90;99.90;;;;;;4999203;28;20202;-57
2023/07/08 11:54:13;;;;;;;10.57;5.72;;;34.10;99.90;;;;;;4996808;28;20657;-57
2023/07/08 11:57:03;;;;;;;9.18;6.55;;;33.80;99.90;;;;;;4998807;28;20209;-56
2023/07/08 11:59:36;;;;;;;6.30;5.70;;;33.70;99.90;;;;;;5001019;28;20335;-57
2023/07/08 12:02:14;;;;;;;8.15;5.32;;;33.80;99.90;;;;;;4993426;28;20586;-57
2023/07/08 12:05:22;;;;;;;7.70;5.18;;;34.00;99.90;;;;;;4996038;28;20689;-57
2023/07/08 12:08:00;;;;;;;7.35;5.45;;;34.10;99.90;;;;;;4993830;28;20206;-58
2023/07/08 12:10:39;;;;;;;9.90;5.78;;;33.80;99.90;;;;;;4992784;28;21189;-57
2023/07/08 12:13:13;;;;;;;7.15;5.47;;;33.70;99.90;;;;;;4996753;28;20468;-57
2023/07/08 12:15:41;;;;;;;8.60;5.35;;;34.20;99.90;;;;;;4991610;28;20560;-57
2023/07/08 12:18:17;;;;;;;7.65;4.93;;;33.90;99.90;;;;;;4992296;28;20246;-57
2023/07/08 12:21:07;;;;;;;11.38;5.93;;;34.30;99.90;;;;;;4990695;28;20907;-57
2023/07/08 12:23:34;;;;;;;8.02;5.80;;;34.50;99.90;;;;;;4991755;28;20209;-57
2023/07/08 12:26:02;;;;;;;8.32;5.70;;;34.60;99.90;;;;;;4996885;28;20290;-57
2023/07/08 12:28:29;;;;;;;9.20;4.93;;;34.70;99.90;;;;;;4989706;28;21991;-57
2023/07/08 12:30:59;;;;;;;6.85;5.35;;;34.50;99.90;;;;;;4993696;28;20205;-57
2023/07/08 12:33:33;;;;;;;8.13;5.88;;;35.00;99.90;;;;;;4992372;28;20585;-56
2023/07/08 12:36:03;;;;;;;9.07;5.57;;;35.30;99.90;;;;;;4996700;28;20236;-57
2023/07/08 12:38:37;;;;;;;7.65;5.30;;;35.30;99.90;;;;;;4991779;28;20209;-57
2023/07/08 12:41:29;;;;;;;8.95;5.72;;;35.00;99.90;;;;;;5002711;28;20754;-57
2023/07/08 12:43:56;;;;;;;8.48;5.05;;;35.10;99.90;;;;;;5000892;28;20271;-57
2023/07/08 12:46:24;;;;;;;7.35;5.40;;;35.20;99.90;;;;;;4997444;28;20221;-61
2023/07/08 12:48:52;;;;;;;8.60;5.30;;;35.40;99.90;;;;;;5000055;28;20200;-57
2023/07/08 12:51:24;;;;;;;8.15;5.38;;;35.40;99.90;;;;;;5001743;28;20426;-58
2023/07/08 12:53:52;;;;;;;8.07;5.90;;;35.20;99.90;;;;;;4988651;28;20214;-58
2023/07/08 12:56:22;;;;;;;8.88;5.82;;;35.10;99.90;;;;;;4997245;28;20346;-57
2023/07/08 12:58:52;;;;;;;8.15;5.30;;;35.20;99.90;;;;;;4999014;28;20210;-58
2023/07/08 13:01:21;;;;;;;7.68;5.30;;;35.10;99.90;;;;;;4998275;28;21092;-57
2023/07/08 13:03:52;;;;;;;10.95;6.03;;;35.10;99.90;;;;;;4999188;28;21715;-57
2023/07/08 13:06:25;;;;;;;8.05;5.38;;;34.90;99.90;;;;;;4999406;28;20224;-57